Sterling, Massachusetts
Current Conditions -  °F | °C
As of 6:52 PM on Wednesday 28 Jan 2015 (Local Time) from KFIT Reporting Station
Clear Clear  
Wind Chill: 11°   Ceiling: Unl
Heat Index: 22°   Visibility: 10mi
Dew Point:   Wind: 10mph
Humidity: 40%   Direction: 330°NNW
Pressure: 30.11"   Gusts: NA
Location:  42.44°N, 71.76°W
Report Text: KFIT 282352Z AUTO 33009KT 10SM CLR M06/M17 A3011 RMK AO2 SLP204 T10561172 11033 21056 51031
Loading
Personal Weather Stations






























Interactive Weather Map New forecast layout! Learn more

10-Day Weather Forecast

Advertisements
Track Severe Weather on mobile